sensor_id;sensor_type;location;lat;lon;timestamp;P1;durP1;ratioP1;P2;durP2;ratioP2
32523;SDS011;18965;52.242;20.886;2022-09-21T00:01:07;10.43;;;4.35;;
32523;SDS011;18965;52.242;20.886;2022-09-21T00:03:34;10.73;;;4.20;;
32523;SDS011;18965;52.242;20.886;2022-09-21T00:06:04;8.13;;;4.25;;
32523;SDS011;18965;52.242;20.886;2022-09-21T00:08:32;10.13;;;4.50;;
32523;SDS011;18965;52.242;20.886;2022-09-21T00:10:58;22.77;;;6.05;;
32523;SDS011;18965;52.242;20.886;2022-09-21T00:13:24;14.25;;;4.72;;
32523;SDS011;18965;52.242;20.886;2022-09-21T00:15:52;7.47;;;3.85;;
32523;SDS011;18965;52.242;20.886;2022-09-21T00:18:19;6.43;;;3.97;;
32523;SDS011;18965;52.242;20.886;2022-09-21T00:20:46;11.23;;;4.55;;
32523;SDS011;18965;52.242;20.886;2022-09-21T00:23:12;10.73;;;4.82;;
32523;SDS011;18965;52.242;20.886;2022-09-21T00:25:38;10.68;;;4.43;;
32523;SDS011;18965;52.242;20.886;2022-09-21T00:28:03;7.68;;;4.10;;
32523;SDS011;18965;52.242;20.886;2022-09-21T00:30:29;10.10;;;4.07;;
32523;SDS011;18965;52.242;20.886;2022-09-21T00:32:55;28.13;;;6.00;;
32523;SDS011;18965;52.242;20.886;2022-09-21T00:35:21;18.67;;;4.82;;
32523;SDS011;18965;52.242;20.886;2022-09-21T00:37:47;8.73;;;4.32;;
32523;SDS011;18965;52.242;20.886;2022-09-21T00:40:13;9.18;;;4.20;;
32523;SDS011;18965;52.242;20.886;2022-09-21T00:42:39;8.30;;;4.05;;
32523;SDS011;18965;52.242;20.886;2022-09-21T00:45:05;11.55;;;4.47;;
32523;SDS011;18965;52.242;20.886;2022-09-21T00:47:32;11.13;;;4.65;;
32523;SDS011;18965;52.242;20.886;2022-09-21T00:50:07;12.45;;;4.13;;
32523;SDS011;18965;52.242;20.886;2022-09-21T00:52:39;8.63;;;4.05;;
32523;SDS011;18965;52.242;20.886;2022-09-21T00:55:09;10.35;;;4.10;;
32523;SDS011;18965;52.242;20.886;2022-09-21T00:57:46;8.82;;;4.25;;
32523;SDS011;18965;52.242;20.886;2022-09-21T01:00:16;10.88;;;4.53;;
32523;SDS011;18965;52.242;20.886;2022-09-21T01:02:42;8.07;;;3.97;;
32523;SDS011;18965;52.242;20.886;2022-09-21T01:05:09;12.57;;;4.75;;
32523;SDS011;18965;52.242;20.886;2022-09-21T01:07:36;8.60;;;4.03;;
32523;SDS011;18965;52.242;20.886;2022-09-21T01:10:07;13.15;;;4.85;;
32523;SDS011;18965;52.242;20.886;2022-09-21T01:15:34;13.15;;;5.05;;
32523;SDS011;18965;52.242;20.886;2022-09-21T01:20:38;12.18;;;4.60;;
32523;SDS011;18965;52.242;20.886;2022-09-21T01:31:39;10.70;;;4.85;;
32523;SDS011;18965;52.242;20.886;2022-09-21T01:34:16;8.68;;;4.78;;
32523;SDS011;18965;52.242;20.886;2022-09-21T01:37:04;6.07;;;3.20;;
32523;SDS011;18965;52.242;20.886;2022-09-21T01:39:34;8.32;;;4.68;;
32523;SDS011;18965;52.242;20.886;2022-09-21T01:42:03;13.10;;;5.07;;
32523;SDS011;18965;52.242;20.886;2022-09-21T01:44:30;10.48;;;5.72;;
32523;SDS011;18965;52.242;20.886;2022-09-21T01:47:02;11.20;;;5.07;;
32523;SDS011;18965;52.242;20.886;2022-09-21T01:49:33;23.15;;;7.28;;
32523;SDS011;18965;52.242;20.886;2022-09-21T01:52:45;14.68;;;6.18;;
32523;SDS011;18965;52.242;20.886;2022-09-21T01:54:52;12.93;;;5.72;;
32523;SDS011;18965;52.242;20.886;2022-09-21T01:57:30;12.15;;;5.50;;
32523;SDS011;18965;52.242;20.886;2022-09-21T02:00:04;12.60;;;5.82;;
32523;SDS011;18965;52.242;20.886;2022-09-21T02:02:34;10.18;;;5.68;;
32523;SDS011;18965;52.242;20.886;2022-09-21T02:05:15;16.20;;;6.10;;
32523;SDS011;18965;52.242;20.886;2022-09-21T02:07:44;10.30;;;5.32;;
32523;SDS011;18965;52.242;20.886;2022-09-21T02:10:22;12.00;;;5.30;;
32523;SDS011;18965;52.242;20.886;2022-09-21T02:12:57;10.93;;;5.22;;
32523;SDS011;18965;52.242;20.886;2022-09-21T02:21:04;10.90;;;5.22;;
32523;SDS011;18965;52.242;20.886;2022-09-21T02:23:41;11.10;;;5.05;;
32523;SDS011;18965;52.242;20.886;2022-09-21T02:26:28;16.90;;;5.68;;
32523;SDS011;18965;52.242;20.886;2022-09-21T02:31:29;13.88;;;5.97;;
32523;SDS011;18965;52.242;20.886;2022-09-21T02:36:42;8.90;;;5.35;;
32523;SDS011;18965;52.242;20.886;2022-09-21T02:39:16;14.45;;;5.93;;
32523;SDS011;18965;52.242;20.886;2022-09-21T02:41:55;11.48;;;5.45;;
32523;SDS011;18965;52.242;20.886;2022-09-21T02:44:37;10.52;;;5.95;;
32523;SDS011;18965;52.242;20.886;2022-09-21T02:47:10;9.88;;;6.50;;
32523;SDS011;18965;52.242;20.886;2022-09-21T02:49:52;10.40;;;6.18;;
32523;SDS011;18965;52.242;20.886;2022-09-21T02:52:22;13.52;;;6.55;;
32523;SDS011;18965;52.242;20.886;2022-09-21T02:54:51;9.63;;;5.80;;
32523;SDS011;18965;52.242;20.886;2022-09-21T02:57:19;13.68;;;6.20;;
32523;SDS011;18965;52.242;20.886;2022-09-21T02:59:47;10.27;;;5.70;;
32523;SDS011;18965;52.242;20.886;2022-09-21T03:02:14;13.38;;;6.57;;
32523;SDS011;18965;52.242;20.886;2022-09-21T03:04:40;11.98;;;5.95;;
32523;SDS011;18965;52.242;20.886;2022-09-21T03:07:07;10.90;;;5.72;;
32523;SDS011;18965;52.242;20.886;2022-09-21T03:09:34;14.30;;;6.10;;
32523;SDS011;18965;52.242;20.886;2022-09-21T03:12:00;12.50;;;6.00;;
32523;SDS011;18965;52.242;20.886;2022-09-21T03:14:25;8.63;;;5.63;;
32523;SDS011;18965;52.242;20.886;2022-09-21T03:16:51;10.95;;;5.82;;
32523;SDS011;18965;52.242;20.886;2022-09-21T03:19:18;12.30;;;5.72;;
32523;SDS011;18965;52.242;20.886;2022-09-21T03:21:44;11.85;;;6.15;;
32523;SDS011;18965;52.242;20.886;2022-09-21T03:24:10;10.38;;;5.63;;
32523;SDS011;18965;52.242;20.886;2022-09-21T03:26:36;11.27;;;5.90;;
32523;SDS011;18965;52.242;20.886;2022-09-21T03:29:02;8.52;;;5.10;;
32523;SDS011;18965;52.242;20.886;2022-09-21T03:31:28;8.98;;;5.00;;
32523;SDS011;18965;52.242;20.886;2022-09-21T03:33:54;9.02;;;5.00;;
32523;SDS011;18965;52.242;20.886;2022-09-21T03:36:19;14.38;;;5.55;;
32523;SDS011;18965;52.242;20.886;2022-09-21T03:38:45;7.65;;;5.00;;
32523;SDS011;18965;52.242;20.886;2022-09-21T03:41:11;12.25;;;4.72;;
32523;SDS011;18965;52.242;20.886;2022-09-21T03:43:39;10.18;;;5.35;;
32523;SDS011;18965;52.242;20.886;2022-09-21T03:46:04;10.25;;;4.85;;
32523;SDS011;18965;52.242;20.886;2022-09-21T03:48:30;8.63;;;4.97;;
32523;SDS011;18965;52.242;20.886;2022-09-21T03:50:56;9.15;;;5.13;;
32523;SDS011;18965;52.242;20.886;2022-09-21T03:53:25;10.68;;;4.90;;
32523;SDS011;18965;52.242;20.886;2022-09-21T03:55:51;13.50;;;5.47;;
32523;SDS011;18965;52.242;20.886;2022-09-21T03:58:17;7.47;;;5.13;;
32523;SDS011;18965;52.242;20.886;2022-09-21T04:00:43;8.55;;;5.22;;
32523;SDS011;18965;52.242;20.886;2022-09-21T04:03:08;10.32;;;5.05;;
32523;SDS011;18965;52.242;20.886;2022-09-21T04:05:34;10.85;;;5.07;;
32523;SDS011;18965;52.242;20.886;2022-09-21T04:08:00;15.27;;;5.70;;
32523;SDS011;18965;52.242;20.886;2022-09-21T04:10:26;10.38;;;4.57;;
32523;SDS011;18965;52.242;20.886;2022-09-21T04:12:56;11.77;;;5.45;;
32523;SDS011;18965;52.242;20.886;2022-09-21T04:15:23;9.52;;;4.65;;
32523;SDS011;18965;52.242;20.886;2022-09-21T04:17:50;10.82;;;5.20;;
32523;SDS011;18965;52.242;20.886;2022-09-21T04:20:16;16.70;;;5.78;;
32523;SDS011;18965;52.242;20.886;2022-09-21T04:22:42;6.20;;;4.35;;
32523;SDS011;18965;52.242;20.886;2022-09-21T04:25:09;16.10;;;5.70;;
32523;SDS011;18965;52.242;20.886;2022-09-21T04:27:36;9.60;;;4.70;;
32523;SDS011;18965;52.242;20.886;2022-09-21T04:30:02;8.60;;;5.20;;
32523;SDS011;18965;52.242;20.886;2022-09-21T04:32:27;10.55;;;5.05;;
32523;SDS011;18965;52.242;20.886;2022-09-21T04:34:53;7.13;;;4.85;;
32523;SDS011;18965;52.242;20.886;2022-09-21T04:37:19;9.98;;;5.50;;
32523;SDS011;18965;52.242;20.886;2022-09-21T04:39:45;19.00;;;6.20;;
32523;SDS011;18965;52.242;20.886;2022-09-21T04:42:11;7.28;;;5.05;;
32523;SDS011;18965;52.242;20.886;2022-09-21T04:44:37;14.10;;;5.72;;
32523;SDS011;18965;52.242;20.886;2022-09-21T04:47:03;9.50;;;5.20;;
32523;SDS011;18965;52.242;20.886;2022-09-21T04:49:28;19.63;;;6.57;;
32523;SDS011;18965;52.242;20.886;2022-09-21T04:51:54;12.27;;;6.03;;
32523;SDS011;18965;52.242;20.886;2022-09-21T04:54:20;17.55;;;6.28;;
32523;SDS011;18965;52.242;20.886;2022-09-21T04:56:46;7.50;;;5.10;;
32523;SDS011;18965;52.242;20.886;2022-09-21T04:59:12;9.13;;;5.50;;
32523;SDS011;18965;52.242;20.886;2022-09-21T05:01:37;9.65;;;5.35;;
32523;SDS011;18965;52.242;20.886;2022-09-21T05:04:03;8.07;;;4.75;;
32523;SDS011;18965;52.242;20.886;2022-09-21T05:06:30;11.07;;;5.72;;
32523;SDS011;18965;52.242;20.886;2022-09-21T05:08:57;12.15;;;5.80;;
32523;SDS011;18965;52.242;20.886;2022-09-21T05:11:42;12.90;;;5.43;;
32523;SDS011;18965;52.242;20.886;2022-09-21T05:14:08;16.50;;;5.95;;
32523;SDS011;18965;52.242;20.886;2022-09-21T05:16:34;14.38;;;5.68;;
32523;SDS011;18965;52.242;20.886;2022-09-21T05:19:00;15.82;;;6.10;;
32523;SDS011;18965;52.242;20.886;2022-09-21T05:21:26;13.50;;;5.88;;
32523;SDS011;18965;52.242;20.886;2022-09-21T05:23:52;22.95;;;6.53;;
32523;SDS011;18965;52.242;20.886;2022-09-21T05:26:18;13.93;;;5.70;;
32523;SDS011;18965;52.242;20.886;2022-09-21T05:28:44;29.48;;;7.50;;
32523;SDS011;18965;52.242;20.886;2022-09-21T05:34:01;13.57;;;5.30;;
32523;SDS011;18965;52.242;20.886;2022-09-21T05:36:43;12.75;;;6.28;;
32523;SDS011;18965;52.242;20.886;2022-09-21T05:39:12;8.20;;;5.63;;
32523;SDS011;18965;52.242;20.886;2022-09-21T05:41:38;35.20;;;8.05;;
32523;SDS011;18965;52.242;20.886;2022-09-21T05:44:04;15.50;;;6.07;;
32523;SDS011;18965;52.242;20.886;2022-09-21T05:57:36;12.75;;;5.22;;
32523;SDS011;18965;52.242;20.886;2022-09-21T06:00:17;13.05;;;5.22;;
32523;SDS011;18965;52.242;20.886;2022-09-21T06:05:44;10.95;;;4.90;;
32523;SDS011;18965;52.242;20.886;2022-09-21T06:08:10;14.43;;;5.03;;
32523;SDS011;18965;52.242;20.886;2022-09-21T06:10:36;8.07;;;4.18;;
32523;SDS011;18965;52.242;20.886;2022-09-21T06:13:01;9.07;;;4.65;;
32523;SDS011;18965;52.242;20.886;2022-09-21T06:15:27;19.65;;;5.80;;
32523;SDS011;18965;52.242;20.886;2022-09-21T06:17:53;6.97;;;4.13;;
32523;SDS011;18965;52.242;20.886;2022-09-21T06:20:19;13.25;;;5.32;;
32523;SDS011;18965;52.242;20.886;2022-09-21T06:22:45;13.05;;;4.85;;
32523;SDS011;18965;52.242;20.886;2022-09-21T06:25:10;17.33;;;5.10;;
32523;SDS011;18965;52.242;20.886;2022-09-21T06:27:36;5.25;;;3.70;;
32523;SDS011;18965;52.242;20.886;2022-09-21T06:30:02;5.68;;;4.50;;
32523;SDS011;18965;52.242;20.886;2022-09-21T06:32:28;6.55;;;3.70;;
32523;SDS011;18965;52.242;20.886;2022-09-21T06:34:53;7.03;;;3.83;;
32523;SDS011;18965;52.242;20.886;2022-09-21T06:37:19;4.75;;;3.08;;
32523;SDS011;18965;52.242;20.886;2022-09-21T06:39:45;6.10;;;3.55;;
32523;SDS011;18965;52.242;20.886;2022-09-21T06:42:10;8.98;;;4.00;;
32523;SDS011;18965;52.242;20.886;2022-09-21T06:44:36;6.85;;;3.80;;
32523;SDS011;18965;52.242;20.886;2022-09-21T06:47:02;10.23;;;3.90;;
32523;SDS011;18965;52.242;20.886;2022-09-21T06:49:28;10.73;;;3.95;;
32523;SDS011;18965;52.242;20.886;2022-09-21T06:51:54;6.15;;;3.47;;
32523;SDS011;18965;52.242;20.886;2022-09-21T06:54:20;5.90;;;3.20;;
32523;SDS011;18965;52.242;20.886;2022-09-21T06:56:46;10.63;;;3.92;;
32523;SDS011;18965;52.242;20.886;2022-09-21T06:59:12;7.43;;;3.60;;
32523;SDS011;18965;52.242;20.886;2022-09-21T07:01:37;16.08;;;4.18;;
32523;SDS011;18965;52.242;20.886;2022-09-21T07:04:03;9.52;;;3.33;;
32523;SDS011;18965;52.242;20.886;2022-09-21T07:06:31;4.93;;;2.70;;
32523;SDS011;18965;52.242;20.886;2022-09-21T07:08:56;9.48;;;2.85;;
32523;SDS011;18965;52.242;20.886;2022-09-21T07:11:22;10.80;;;3.35;;
32523;SDS011;18965;52.242;20.886;2022-09-21T07:13:49;8.93;;;2.90;;
32523;SDS011;18965;52.242;20.886;2022-09-21T07:16:15;7.07;;;2.65;;
32523;SDS011;18965;52.242;20.886;2022-09-21T07:18:41;13.48;;;3.35;;
32523;SDS011;18965;52.242;20.886;2022-09-21T07:21:08;13.38;;;3.38;;
32523;SDS011;18965;52.242;20.886;2022-09-21T07:23:35;9.73;;;3.15;;
32523;SDS011;18965;52.242;20.886;2022-09-21T07:26:02;14.48;;;3.22;;
32523;SDS011;18965;52.242;20.886;2022-09-21T07:28:33;10.35;;;2.90;;
32523;SDS011;18965;52.242;20.886;2022-09-21T07:31:04;14.82;;;3.28;;
32523;SDS011;18965;52.242;20.886;2022-09-21T07:33:32;9.70;;;2.60;;
32523;SDS011;18965;52.242;20.886;2022-09-21T07:35:57;7.05;;;2.75;;
32523;SDS011;18965;52.242;20.886;2022-09-21T07:38:24;5.38;;;2.00;;
32523;SDS011;18965;52.242;20.886;2022-09-21T07:40:51;13.98;;;3.30;;
32523;SDS011;18965;52.242;20.886;2022-09-21T07:43:17;20.75;;;4.07;;
32523;SDS011;18965;52.242;20.886;2022-09-21T07:45:50;19.85;;;4.07;;
32523;SDS011;18965;52.242;20.886;2022-09-21T07:48:18;22.00;;;4.43;;
32523;SDS011;18965;52.242;20.886;2022-09-21T07:50:44;13.85;;;3.53;;
32523;SDS011;18965;52.242;20.886;2022-09-21T07:53:18;16.88;;;3.35;;
32523;SDS011;18965;52.242;20.886;2022-09-21T07:55:45;5.43;;;2.00;;
32523;SDS011;18965;52.242;20.886;2022-09-21T07:58:10;12.50;;;2.80;;
32523;SDS011;18965;52.242;20.886;2022-09-21T08:00:55;11.55;;;2.75;;
32523;SDS011;18965;52.242;20.886;2022-09-21T08:03:21;5.15;;;2.15;;
32523;SDS011;18965;52.242;20.886;2022-09-21T08:05:47;6.80;;;2.10;;
32523;SDS011;18965;52.242;20.886;2022-09-21T08:08:12;11.32;;;4.00;;
32523;SDS011;18965;52.242;20.886;2022-09-21T08:10:39;18.55;;;6.22;;
32523;SDS011;18965;52.242;20.886;2022-09-21T08:13:05;17.42;;;4.45;;
32523;SDS011;18965;52.242;20.886;2022-09-21T08:15:30;9.90;;;2.80;;
32523;SDS011;18965;52.242;20.886;2022-09-21T08:17:56;9.00;;;2.10;;
32523;SDS011;18965;52.242;20.886;2022-09-21T08:20:22;11.70;;;3.03;;
32523;SDS011;18965;52.242;20.886;2022-09-21T08:22:49;10.55;;;2.53;;
32523;SDS011;18965;52.242;20.886;2022-09-21T08:25:17;8.70;;;2.28;;
32523;SDS011;18965;52.242;20.886;2022-09-21T08:27:43;8.77;;;2.25;;
32523;SDS011;18965;52.242;20.886;2022-09-21T08:30:09;5.88;;;2.03;;
32523;SDS011;18965;52.242;20.886;2022-09-21T08:32:37;5.03;;;1.75;;
32523;SDS011;18965;52.242;20.886;2022-09-21T08:35:06;4.72;;;1.73;;
32523;SDS011;18965;52.242;20.886;2022-09-21T08:37:40;6.43;;;2.20;;
32523;SDS011;18965;52.242;20.886;2022-09-21T08:40:28;14.27;;;2.72;;
32523;SDS011;18965;52.242;20.886;2022-09-21T08:43:12;12.65;;;3.05;;
32523;SDS011;18965;52.242;20.886;2022-09-21T08:46:10;13.32;;;2.83;;
32523;SDS011;18965;52.242;20.886;2022-09-21T08:48:49;13.13;;;3.25;;
32523;SDS011;18965;52.242;20.886;2022-09-21T08:51:20;5.57;;;1.77;;
32523;SDS011;18965;52.242;20.886;2022-09-21T08:53:59;7.32;;;1.80;;
32523;SDS011;18965;52.242;20.886;2022-09-21T08:56:33;6.13;;;1.90;;
32523;SDS011;18965;52.242;20.886;2022-09-21T08:59:01;7.43;;;2.00;;
32523;SDS011;18965;52.242;20.886;2022-09-21T09:10:37;9.95;;;2.50;;
32523;SDS011;18965;52.242;20.886;2022-09-21T09:21:03;9.52;;;2.33;;
32523;SDS011;18965;52.242;20.886;2022-09-21T09:23:36;9.13;;;1.92;;
32523;SDS011;18965;52.242;20.886;2022-09-21T09:26:17;8.70;;;2.35;;
32523;SDS011;18965;52.242;20.886;2022-09-21T09:32:27;14.65;;;3.33;;
32523;SDS011;18965;52.242;20.886;2022-09-21T09:52:14;2.70;;;1.20;;
32523;SDS011;18965;52.242;20.886;2022-09-21T09:54:41;5.68;;;1.25;;
32523;SDS011;18965;52.242;20.886;2022-09-21T09:57:08;2.03;;;1.05;;
32523;SDS011;18965;52.242;20.886;2022-09-21T09:59:47;1.98;;;1.10;;
32523;SDS011;18965;52.242;20.886;2022-09-21T10:07:35;4.65;;;1.45;;
32523;SDS011;18965;52.242;20.886;2022-09-21T10:12:49;1.65;;;1.15;;
32523;SDS011;18965;52.242;20.886;2022-09-21T10:15:22;5.43;;;1.80;;
32523;SDS011;18965;52.242;20.886;2022-09-21T10:18:05;5.35;;;1.60;;
32523;SDS011;18965;52.242;20.886;2022-09-21T10:20:42;4.30;;;1.13;;
32523;SDS011;18965;52.242;20.886;2022-09-21T10:23:33;3.47;;;1.25;;
32523;SDS011;18965;52.242;20.886;2022-09-21T10:26:09;5.72;;;1.73;;
32523;SDS011;18965;52.242;20.886;2022-09-21T10:28:53;2.38;;;1.08;;
32523;SDS011;18965;52.242;20.886;2022-09-21T10:31:25;6.88;;;1.63;;
32523;SDS011;18965;52.242;20.886;2022-09-21T10:36:51;5.88;;;1.40;;
32523;SDS011;18965;52.242;20.886;2022-09-21T10:39:25;4.15;;;1.13;;
32523;SDS011;18965;52.242;20.886;2022-09-21T10:48:05;6.28;;;1.77;;
32523;SDS011;18965;52.242;20.886;2022-09-21T10:50:38;3.08;;;1.30;;
32523;SDS011;18965;52.242;20.886;2022-09-21T10:55:43;3.40;;;1.10;;
32523;SDS011;18965;52.242;20.886;2022-09-21T10:58:13;3.70;;;1.33;;
32523;SDS011;18965;52.242;20.886;2022-09-21T11:00:48;4.00;;;1.27;;
32523;SDS011;18965;52.242;20.886;2022-09-21T11:06:01;10.82;;;2.28;;
32523;SDS011;18965;52.242;20.886;2022-09-21T11:08:42;4.65;;;1.25;;
32523;SDS011;18965;52.242;20.886;2022-09-21T11:11:51;3.90;;;1.23;;
32523;SDS011;18965;52.242;20.886;2022-09-21T11:25:11;2.67;;;1.05;;
32523;SDS011;18965;52.242;20.886;2022-09-21T11:27:50;5.97;;;2.28;;
32523;SDS011;18965;52.242;20.886;2022-09-21T11:30:28;7.00;;;1.75;;
32523;SDS011;18965;52.242;20.886;2022-09-21T11:33:19;7.30;;;2.10;;
32523;SDS011;18965;52.242;20.886;2022-09-21T11:36:16;6.40;;;1.40;;
32523;SDS011;18965;52.242;20.886;2022-09-21T11:39:07;7.72;;;1.55;;
32523;SDS011;18965;52.242;20.886;2022-09-21T11:44:52;3.30;;;1.13;;
32523;SDS011;18965;52.242;20.886;2022-09-21T11:58:18;8.57;;;1.70;;
32523;SDS011;18965;52.242;20.886;2022-09-21T12:14:56;3.50;;;1.35;;
32523;SDS011;18965;52.242;20.886;2022-09-21T12:20:47;6.20;;;1.67;;
32523;SDS011;18965;52.242;20.886;2022-09-21T12:23:28;6.65;;;1.77;;
32523;SDS011;18965;52.242;20.886;2022-09-21T12:25:57;5.20;;;1.60;;
32523;SDS011;18965;52.242;20.886;2022-09-21T12:28:36;9.57;;;1.95;;
32523;SDS011;18965;52.242;20.886;2022-09-21T12:34:08;2.90;;;1.08;;
32523;SDS011;18965;52.242;20.886;2022-09-21T12:36:45;4.25;;;1.15;;
32523;SDS011;18965;52.242;20.886;2022-09-21T12:39:43;4.13;;;1.00;;
32523;SDS011;18965;52.242;20.886;2022-09-21T12:47:47;2.45;;;0.98;;
32523;SDS011;18965;52.242;20.886;2022-09-21T12:50:30;3.78;;;1.13;;
32523;SDS011;18965;52.242;20.886;2022-09-21T12:53:12;5.55;;;1.48;;
32523;SDS011;18965;52.242;20.886;2022-09-21T12:59:24;4.30;;;1.08;;
32523;SDS011;18965;52.242;20.886;2022-09-21T13:09:24;6.47;;;0.93;;
32523;SDS011;18965;52.242;20.886;2022-09-21T13:11:54;3.58;;;1.00;;
32523;SDS011;18965;52.242;20.886;2022-09-21T13:14:25;3.30;;;0.90;;
32523;SDS011;18965;52.242;20.886;2022-09-21T13:16:55;2.90;;;0.90;;
32523;SDS011;18965;52.242;20.886;2022-09-21T13:19:25;4.90;;;1.27;;
32523;SDS011;18965;52.242;20.886;2022-09-21T13:22:10;12.85;;;1.95;;
32523;SDS011;18965;52.242;20.886;2022-09-21T13:24:59;2.00;;;1.00;;
32523;SDS011;18965;52.242;20.886;2022-09-21T13:33:30;6.15;;;1.67;;
32523;SDS011;18965;52.242;20.886;2022-09-21T13:52:17;3.80;;;1.40;;
32523;SDS011;18965;52.242;20.886;2022-09-21T14:02:36;7.90;;;1.75;;
32523;SDS011;18965;52.242;20.886;2022-09-21T14:11:28;9.73;;;2.33;;
32523;SDS011;18965;52.242;20.886;2022-09-21T14:13:38;8.77;;;1.92;;
32523;SDS011;18965;52.242;20.886;2022-09-21T14:18:58;5.38;;;1.80;;
32523;SDS011;18965;52.242;20.886;2022-09-21T14:21:26;5.43;;;1.50;;
32523;SDS011;18965;52.242;20.886;2022-09-21T14:26:54;14.30;;;2.28;;
32523;SDS011;18965;52.242;20.886;2022-09-21T14:29:32;7.25;;;1.60;;
32523;SDS011;18965;52.242;20.886;2022-09-21T14:32:09;6.80;;;1.48;;
32523;SDS011;18965;52.242;20.886;2022-09-21T14:34:49;4.90;;;1.42;;
32523;SDS011;18965;52.242;20.886;2022-09-21T14:37:25;3.63;;;1.10;;
32523;SDS011;18965;52.242;20.886;2022-09-21T14:39:57;3.78;;;1.20;;
32523;SDS011;18965;52.242;20.886;2022-09-21T14:42:27;7.38;;;1.58;;
32523;SDS011;18965;52.242;20.886;2022-09-21T14:44:57;4.50;;;1.27;;
32523;SDS011;18965;52.242;20.886;2022-09-21T15:02:12;10.90;;;2.30;;
32523;SDS011;18965;52.242;20.886;2022-09-21T15:07:37;9.80;;;2.08;;
32523;SDS011;18965;52.242;20.886;2022-09-21T15:13:26;1.80;;;1.00;;
32523;SDS011;18965;52.242;20.886;2022-09-21T15:18:32;7.18;;;1.88;;
32523;SDS011;18965;52.242;20.886;2022-09-21T15:21:14;9.30;;;1.45;;
32523;SDS011;18965;52.242;20.886;2022-09-21T15:23:53;4.40;;;1.30;;
32523;SDS011;18965;52.242;20.886;2022-09-21T15:28:55;6.53;;;2.05;;
32523;SDS011;18965;52.242;20.886;2022-09-21T15:31:35;2.60;;;1.17;;
32523;SDS011;18965;52.242;20.886;2022-09-21T15:34:03;4.45;;;1.40;;
32523;SDS011;18965;52.242;20.886;2022-09-21T15:36:33;3.63;;;1.20;;
32523;SDS011;18965;52.242;20.886;2022-09-21T15:39:04;5.35;;;1.63;;
32523;SDS011;18965;52.242;20.886;2022-09-21T15:44:11;8.15;;;1.70;;
32523;SDS011;18965;52.242;20.886;2022-09-21T15:46:40;10.07;;;2.47;;
32523;SDS011;18965;52.242;20.886;2022-09-21T15:49:11;3.67;;;1.50;;
32523;SDS011;18965;52.242;20.886;2022-09-21T15:51:49;2.75;;;1.10;;
32523;SDS011;18965;52.242;20.886;2022-09-21T15:54:35;4.07;;;1.53;;
32523;SDS011;18965;52.242;20.886;2022-09-21T15:57:04;10.85;;;1.98;;
32523;SDS011;18965;52.242;20.886;2022-09-21T15:59:49;4.18;;;1.65;;
32523;SDS011;18965;52.242;20.886;2022-09-21T16:02:20;6.78;;;1.88;;
32523;SDS011;18965;52.242;20.886;2022-09-21T16:04:52;5.43;;;1.67;;
32523;SDS011;18965;52.242;20.886;2022-09-21T16:07:32;8.43;;;1.90;;
32523;SDS011;18965;52.242;20.886;2022-09-21T16:10:34;8.00;;;1.77;;
32523;SDS011;18965;52.242;20.886;2022-09-21T16:13:14;3.22;;;1.23;;
32523;SDS011;18965;52.242;20.886;2022-09-21T16:16:26;2.53;;;1.27;;
32523;SDS011;18965;52.242;20.886;2022-09-21T16:18:53;3.83;;;1.20;;
32523;SDS011;18965;52.242;20.886;2022-09-21T16:24:09;2.30;;;1.17;;
32523;SDS011;18965;52.242;20.886;2022-09-21T16:26:53;28.83;;;4.43;;
32523;SDS011;18965;52.242;20.886;2022-09-21T16:29:23;10.73;;;2.13;;
32523;SDS011;18965;52.242;20.886;2022-09-21T16:34:52;8.48;;;2.05;;
32523;SDS011;18965;52.242;20.886;2022-09-21T16:37:29;12.95;;;2.38;;
32523;SDS011;18965;52.242;20.886;2022-09-21T16:39:55;13.10;;;2.47;;
32523;SDS011;18965;52.242;20.886;2022-09-21T16:42:23;11.27;;;2.42;;
32523;SDS011;18965;52.242;20.886;2022-09-21T16:44:52;13.70;;;2.50;;
32523;SDS011;18965;52.242;20.886;2022-09-21T16:47:20;9.68;;;2.15;;
32523;SDS011;18965;52.242;20.886;2022-09-21T16:49:49;10.13;;;2.13;;
32523;SDS011;18965;52.242;20.886;2022-09-21T16:52:19;22.50;;;3.80;;
32523;SDS011;18965;52.242;20.886;2022-09-21T16:54:46;7.93;;;2.10;;
32523;SDS011;18965;52.242;20.886;2022-09-21T16:57:13;12.00;;;2.50;;
32523;SDS011;18965;52.242;20.886;2022-09-21T16:59:39;19.33;;;3.17;;
32523;SDS011;18965;52.242;20.886;2022-09-21T17:02:05;17.95;;;3.58;;
32523;SDS011;18965;52.242;20.886;2022-09-21T17:04:34;17.13;;;3.97;;
32523;SDS011;18965;52.242;20.886;2022-09-21T17:07:00;13.00;;;3.13;;
32523;SDS011;18965;52.242;20.886;2022-09-21T17:09:32;17.58;;;3.30;;
32523;SDS011;18965;52.242;20.886;2022-09-21T17:12:04;9.10;;;2.42;;
32523;SDS011;18965;52.242;20.886;2022-09-21T17:14:32;13.07;;;2.75;;
32523;SDS011;18965;52.242;20.886;2022-09-21T17:17:04;15.40;;;3.28;;
32523;SDS011;18965;52.242;20.886;2022-09-21T17:19:32;12.70;;;3.53;;
32523;SDS011;18965;52.242;20.886;2022-09-21T17:22:01;20.33;;;4.35;;
32523;SDS011;18965;52.242;20.886;2022-09-21T17:24:27;12.20;;;4.10;;
32523;SDS011;18965;52.242;20.886;2022-09-21T17:26:53;15.35;;;4.25;;
32523;SDS011;18965;52.242;20.886;2022-09-21T17:31:51;6.32;;;2.83;;
32523;SDS011;18965;52.242;20.886;2022-09-21T17:34:22;5.13;;;3.10;;
32523;SDS011;18965;52.242;20.886;2022-09-21T17:36:52;6.38;;;3.10;;
32523;SDS011;18965;52.242;20.886;2022-09-21T17:39:19;8.43;;;3.47;;
32523;SDS011;18965;52.242;20.886;2022-09-21T17:41:50;10.07;;;4.10;;
32523;SDS011;18965;52.242;20.886;2022-09-21T17:44:40;6.18;;;3.80;;
32523;SDS011;18965;52.242;20.886;2022-09-21T17:47:21;9.68;;;4.72;;
32523;SDS011;18965;52.242;20.886;2022-09-21T17:49:51;13.02;;;5.50;;
32523;SDS011;18965;52.242;20.886;2022-09-21T17:52:19;10.20;;;4.80;;
32523;SDS011;18965;52.242;20.886;2022-09-21T17:55:05;10.10;;;4.80;;
32523;SDS011;18965;52.242;20.886;2022-09-21T18:00:20;14.48;;;4.78;;
32523;SDS011;18965;52.242;20.886;2022-09-21T18:02:48;13.35;;;4.40;;
32523;SDS011;18965;52.242;20.886;2022-09-21T18:05:17;17.77;;;5.10;;
32523;SDS011;18965;52.242;20.886;2022-09-21T18:07:45;6.57;;;3.38;;
32523;SDS011;18965;52.242;20.886;2022-09-21T18:10:11;10.25;;;4.00;;
32523;SDS011;18965;52.242;20.886;2022-09-21T18:12:59;9.20;;;3.58;;
32523;SDS011;18965;52.242;20.886;2022-09-21T18:21:02;8.02;;;4.07;;
32523;SDS011;18965;52.242;20.886;2022-09-21T18:23:37;10.60;;;4.15;;
32523;SDS011;18965;52.242;20.886;2022-09-21T18:26:06;12.98;;;4.88;;
32523;SDS011;18965;52.242;20.886;2022-09-21T18:28:40;8.93;;;4.10;;
32523;SDS011;18965;52.242;20.886;2022-09-21T18:39:31;11.50;;;4.70;;
32523;SDS011;18965;52.242;20.886;2022-09-21T18:42:04;9.25;;;3.72;;
32523;SDS011;18965;52.242;20.886;2022-09-21T18:45:03;7.82;;;3.60;;
32523;SDS011;18965;52.242;20.886;2022-09-21T18:47:43;8.43;;;3.80;;
32523;SDS011;18965;52.242;20.886;2022-09-21T18:50:32;19.67;;;5.13;;
32523;SDS011;18965;52.242;20.886;2022-09-21T18:53:18;15.20;;;4.32;;
32523;SDS011;18965;52.242;20.886;2022-09-21T18:56:02;8.93;;;4.00;;
32523;SDS011;18965;52.242;20.886;2022-09-21T18:58:30;11.27;;;4.13;;
32523;SDS011;18965;52.242;20.886;2022-09-21T19:00:56;9.70;;;4.20;;
32523;SDS011;18965;52.242;20.886;2022-09-21T19:03:22;9.05;;;4.75;;
32523;SDS011;18965;52.242;20.886;2022-09-21T19:11:40;8.73;;;4.10;;
32523;SDS011;18965;52.242;20.886;2022-09-21T19:14:19;12.60;;;4.20;;
32523;SDS011;18965;52.242;20.886;2022-09-21T19:25:19;16.40;;;4.93;;